Rio Vista Municipal (O88)
Rio Vista, CA
Field Elevation: 23
Lat: 38°11.60N  Long: 121°42.22W
CTAF/Unicom Freq: 122.7250
   
     For Weather-by-Phone, call (707) 374-5396
Weather Advisories
7/24/2014 00:15 Z
Altimeter 30.02" Hg
Wind 230° @ 14 KT
Gusts 17 KT
Visibility 10 SM
Ceiling CLR
Temperature 28° C (82° F)
Dewpoint 14° C (57° F)
Relative Humidity 43%
Density Altitude 1,400 feet
Condensation Altitude 7,000 feet
Heat Index 28° C (82° F)
  Wind and Runways
Indicated Runway = 25
History
 
 
More Info
All DigiWx sites map
NOAA Forecast
 
Airport IQ 5010
(DUC) Stack Farm
(CA37) Dominican
 
about DigiWx
 
FAA Disclaimer: The data displayed is for advisory purposes only and is not to be used for flight planning or operations. For official data, please call (707) 374-5396 to hear the current automated AWOS voice message.
  METAR O88 240015Z AUTO 23014G17KT 10SM CLR 28/14 A3002